createdAt,value
2023-01-12T00:01:27.701Z,20.42
2023-01-12T00:03:55.117Z,18.52
2023-01-12T00:06:23.249Z,22.25
2023-01-12T00:08:51.344Z,23.30
2023-01-12T00:11:18.955Z,22.70
2023-01-12T00:13:45.866Z,20.83
2023-01-12T00:16:39.712Z,15.98
2023-01-12T00:19:19.592Z,26.88
2023-01-12T00:22:10.264Z,24.05
2023-01-12T00:24:41.682Z,15.07
2023-01-12T00:27:14.633Z,15.20
2023-01-12T00:29:41.419Z,12.15
2023-01-12T00:32:14.606Z,17.48
2023-01-12T00:34:41.387Z,12.07
2023-01-12T00:37:08.221Z,11.65
2023-01-12T00:39:40.467Z,11.27
2023-01-12T00:42:26.403Z,8.98
2023-01-12T00:45:11.919Z,15.38
2023-01-12T00:47:38.532Z,14.32
2023-01-12T00:50:05.404Z,14.25
2023-01-12T00:52:32.294Z,15.35
2023-01-12T00:54:59.806Z,12.25
2023-01-12T00:57:27.055Z,8.73
2023-01-12T01:00:00.176Z,8.50
2023-01-12T01:02:28.478Z,9.23
2023-01-12T01:04:55.445Z,10.40
2023-01-12T01:07:22.305Z,11.90
2023-01-12T01:09:49.329Z,14.32
2023-01-12T01:12:16.141Z,14.57
2023-01-12T01:14:42.785Z,16.23
2023-01-12T01:17:09.482Z,10.50
2023-01-12T01:19:36.919Z,15.30
2023-01-12T01:22:03.727Z,15.75
2023-01-12T01:24:30.536Z,19.77
2023-01-12T01:26:57.240Z,17.13
2023-01-12T01:29:23.893Z,10.50
2023-01-12T01:31:50.557Z,15.00
2023-01-12T01:34:17.986Z,12.00
2023-01-12T01:36:44.629Z,18.92
2023-01-12T01:39:11.287Z,14.55
2023-01-12T01:41:38.050Z,9.32
2023-01-12T01:44:26.512Z,9.07
2023-01-12T01:46:57.472Z,11.73
2023-01-12T01:49:27.526Z,13.95
2023-01-12T01:51:59.158Z,14.10
2023-01-12T01:54:27.527Z,12.02
2023-01-12T01:56:56.146Z,10.77
2023-01-12T01:59:26.635Z,12.65
2023-01-12T02:01:54.452Z,11.15
2023-01-12T02:04:21.736Z,11.63
2023-01-12T02:06:49.002Z,18.48
2023-01-12T02:09:21.748Z,9.90
2023-01-12T02:12:07.362Z,15.95
2023-01-12T02:14:52.370Z,15.52
2023-01-12T02:17:43.564Z,11.10
2023-01-12T02:20:22.224Z,12.88
2023-01-12T02:25:56.008Z,13.55
2023-01-12T02:28:53.475Z,12.82
2023-01-12T02:31:27.734Z,17.60
2023-01-12T02:34:12.790Z,5.80
2023-01-12T02:39:24.141Z,18.67
2023-01-12T02:42:30.959Z,18.80
2023-01-12T02:45:34.879Z,12.73
2023-01-12T02:50:44.047Z,17.92
2023-01-12T02:53:33.469Z,14.98
2023-01-12T02:56:02.829Z,11.90
2023-01-12T02:58:35.811Z,12.75
2023-01-12T03:01:04.627Z,19.40
2023-01-12T03:03:31.887Z,17.20
2023-01-12T03:05:59.796Z,13.40
2023-01-12T03:08:30.382Z,11.55
2023-01-12T03:11:32.162Z,8.63
2023-01-12T03:14:02.939Z,7.97
2023-01-12T03:16:33.542Z,15.00
2023-01-12T03:19:21.490Z,11.23
2023-01-12T03:21:48.077Z,8.35
2023-01-12T03:24:19.823Z,10.40
2023-01-12T03:26:50.705Z,8.63
2023-01-12T03:29:20.580Z,14.73
2023-01-12T03:31:47.419Z,7.10
2023-01-12T03:34:14.498Z,11.48
2023-01-12T03:37:11.773Z,9.68
2023-01-12T03:39:47.133Z,10.85
2023-01-12T03:42:21.145Z,10.50
2023-01-12T03:45:05.291Z,9.85
2023-01-12T03:47:33.728Z,9.23
2023-01-12T03:50:06.335Z,10.40
2023-01-12T03:52:36.008Z,6.47
2023-01-12T03:55:03.915Z,7.28
2023-01-12T03:57:32.145Z,9.30
2023-01-12T04:00:00.888Z,6.93
2023-01-12T04:02:27.836Z,8.32
2023-01-12T04:04:54.459Z,4.85
2023-01-12T04:07:24.768Z,8.00
2023-01-12T04:09:51.470Z,7.35
2023-01-12T04:12:18.480Z,8.65
2023-01-12T04:14:48.050Z,5.68
2023-01-12T04:17:15.696Z,7.38
2023-01-12T04:19:42.670Z,5.47
2023-01-12T04:22:29.641Z,5.68
2023-01-12T04:24:56.258Z,5.10
2023-01-12T04:27:22.862Z,5.20
2023-01-12T04:29:49.584Z,8.13
2023-01-12T04:32:16.164Z,5.57
2023-01-12T04:34:42.813Z,9.02
2023-01-12T04:37:09.399Z,6.05
2023-01-12T04:39:36.011Z,4.05
2023-01-12T04:42:02.607Z,6.07
2023-01-12T04:44:29.165Z,7.90
2023-01-12T04:46:55.897Z,5.68
2023-01-12T04:49:22.541Z,4.50
2023-01-12T04:51:49.195Z,5.70
2023-01-12T04:54:15.831Z,8.93
2023-01-12T04:56:42.524Z,5.45
2023-01-12T04:59:10.696Z,6.32
2023-01-12T05:01:39.096Z,7.18
2023-01-12T05:04:07.964Z,6.70
2023-01-12T05:06:34.805Z,6.85
2023-01-12T05:09:20.274Z,6.28
2023-01-12T05:11:47.006Z,6.50
2023-01-12T05:14:13.581Z,7.68
2023-01-12T05:16:40.347Z,8.45
2023-01-12T05:19:07.338Z,7.68
2023-01-12T05:21:33.965Z,7.03
2023-01-12T05:24:00.549Z,5.72
2023-01-12T05:26:27.252Z,6.78
2023-01-12T05:28:53.868Z,4.35
2023-01-12T05:31:20.673Z,2.80
2023-01-12T05:33:48.306Z,3.80
2023-01-12T05:36:16.192Z,5.60
2023-01-12T05:38:43.267Z,3.83
2023-01-12T05:41:13.192Z,4.30
2023-01-12T05:43:52.218Z,5.90
2023-01-12T05:46:25.911Z,6.97
2023-01-12T05:48:53.973Z,2.63
2023-01-12T05:51:20.671Z,3.55
2023-01-12T05:53:47.878Z,3.70
2023-01-12T05:56:28.548Z,5.40
2023-01-12T05:58:58.428Z,5.97
2023-01-12T06:01:25.452Z,4.15
2023-01-12T06:03:54.751Z,6.70
2023-01-12T06:06:23.291Z,4.93
2023-01-12T06:08:52.638Z,6.38
2023-01-12T06:11:38.931Z,6.70
2023-01-12T06:14:06.489Z,2.97
2023-01-12T06:16:33.538Z,4.43
2023-01-12T06:19:01.294Z,6.32
2023-01-12T06:21:28.186Z,5.53
2023-01-12T06:23:54.829Z,6.65
2023-01-12T06:26:21.459Z,4.18
2023-01-12T06:28:48.138Z,3.22
2023-01-12T06:31:14.925Z,6.32
2023-01-12T06:33:42.158Z,4.13
2023-01-12T06:36:09.482Z,3.97
2023-01-12T06:38:40.013Z,2.83
2023-01-12T06:41:29.590Z,6.72
2023-01-12T06:43:59.966Z,3.67
2023-01-12T06:46:27.633Z,4.00
2023-01-12T06:48:58.356Z,6.93
2023-01-12T06:51:25.995Z,3.72
2023-01-12T06:53:53.012Z,2.67
2023-01-12T06:56:19.710Z,3.15
2023-01-12T06:58:46.587Z,4.88
2023-01-12T07:01:13.938Z,4.43
2023-01-12T07:03:40.895Z,3.33
2023-01-12T07:06:07.978Z,5.28
2023-01-12T07:08:35.585Z,4.05
2023-01-12T07:11:03.701Z,3.38
2023-01-12T07:13:31.348Z,4.80
2023-01-12T07:16:00.122Z,2.75
2023-01-12T07:18:28.207Z,4.80
2023-01-12T07:20:54.885Z,5.85
2023-01-12T07:23:21.563Z,6.07
2023-01-12T07:25:48.237Z,2.78
2023-01-12T07:28:15.462Z,3.92
2023-01-12T07:30:42.121Z,4.88
2023-01-12T07:33:10.735Z,5.60
2023-01-12T07:35:37.427Z,6.90
2023-01-12T07:38:04.233Z,3.47
2023-01-12T07:40:30.893Z,3.17
2023-01-12T07:43:01.864Z,6.05
2023-01-12T07:45:30.127Z,9.07
2023-01-12T07:47:57.185Z,7.35
2023-01-12T07:50:25.655Z,5.35
2023-01-12T07:52:52.531Z,7.95
2023-01-12T07:55:19.797Z,9.05
2023-01-12T07:58:00.621Z,5.55
2023-01-12T08:00:28.306Z,4.30
2023-01-12T08:02:59.056Z,9.00
2023-01-12T08:05:25.697Z,4.85
2023-01-12T08:07:52.365Z,4.97
2023-01-12T08:10:19.213Z,8.75
2023-01-12T08:12:45.769Z,6.45
2023-01-12T08:15:12.798Z,4.25
2023-01-12T08:18:06.109Z,3.72
2023-01-12T08:20:36.226Z,4.88
2023-01-12T08:23:13.903Z,3.70
2023-01-12T08:25:45.040Z,6.57
2023-01-12T08:28:19.536Z,4.10
2023-01-12T08:30:49.344Z,6.47
2023-01-12T08:33:16.454Z,4.18
2023-01-12T08:35:46.359Z,6.10
2023-01-12T08:38:13.588Z,3.22
2023-01-12T08:40:58.839Z,7.60
2023-01-12T08:43:44.069Z,3.97
2023-01-12T08:46:10.757Z,5.53
2023-01-12T08:48:38.511Z,6.07
2023-01-12T08:51:06.474Z,3.65
2023-01-12T08:53:33.070Z,5.28
2023-01-12T08:55:59.966Z,5.45
2023-01-12T08:58:26.549Z,3.08
2023-01-12T09:00:53.381Z,2.33
2023-01-12T09:03:20.222Z,3.08
2023-01-12T09:05:47.959Z,4.30
2023-01-12T09:08:15.258Z,3.03
2023-01-12T09:10:41.941Z,3.22
2023-01-12T09:13:10.076Z,3.47
2023-01-12T09:15:36.777Z,3.03
2023-01-12T09:18:03.464Z,2.85
2023-01-12T09:20:30.196Z,4.32
2023-01-12T09:22:56.783Z,4.38
2023-01-12T09:25:23.411Z,2.17
2023-01-12T09:27:50.136Z,7.88
2023-01-12T09:30:16.985Z,5.00
2023-01-12T09:32:43.683Z,3.85
2023-01-12T09:35:10.279Z,3.28
2023-01-12T09:37:38.035Z,6.68
2023-01-12T09:40:05.088Z,3.72
2023-01-12T09:42:50.546Z,2.42
2023-01-12T09:45:39.912Z,1.38
2023-01-12T09:48:10.538Z,3.42
2023-01-12T09:50:41.504Z,4.18
2023-01-12T09:53:31.302Z,4.53
2023-01-12T09:56:06.695Z,4.03
2023-01-12T09:58:42.173Z,6.78
2023-01-12T10:01:20.461Z,5.25
2023-01-12T10:03:55.653Z,5.80
2023-01-12T10:06:22.489Z,2.05
2023-01-12T10:08:57.557Z,5.13
2023-01-12T10:11:39.172Z,4.00
2023-01-12T10:14:08.888Z,2.13
2023-01-12T10:16:54.222Z,3.28
2023-01-12T10:19:40.945Z,3.40
2023-01-12T10:22:17.606Z,4.45
2023-01-12T10:24:45.334Z,3.83
2023-01-12T10:27:15.096Z,7.05
2023-01-12T10:29:41.998Z,6.65
2023-01-12T10:32:12.259Z,8.60
2023-01-12T10:34:52.486Z,6.10
2023-01-12T10:37:19.255Z,5.40
2023-01-12T10:39:46.046Z,6.00
2023-01-12T10:42:32.594Z,4.57
2023-01-12T10:45:12.659Z,4.28
2023-01-12T10:47:39.351Z,5.15
2023-01-12T10:50:22.365Z,3.80
2023-01-12T10:52:53.544Z,3.25
2023-01-12T10:55:21.587Z,4.90
2023-01-12T10:57:49.785Z,6.15
2023-01-12T11:00:24.185Z,3.47
2023-01-12T11:02:53.104Z,6.00
2023-01-12T11:05:38.295Z,4.72
2023-01-12T11:08:22.746Z,5.97
2023-01-12T11:10:49.604Z,7.50
2023-01-12T11:13:37.558Z,3.65
2023-01-12T11:16:35.235Z,2.65
2023-01-12T11:21:38.060Z,4.68
2023-01-12T11:24:17.290Z,3.78
2023-01-12T11:26:55.047Z,5.07
2023-01-12T11:29:46.142Z,2.92
2023-01-12T11:32:32.941Z,4.43
2023-01-12T11:35:28.589Z,4.18
2023-01-12T11:38:03.998Z,3.47
2023-01-12T11:40:37.695Z,4.70
2023-01-12T11:43:55.727Z,6.60
2023-01-12T11:46:24.993Z,1.58
2023-01-12T11:48:56.683Z,3.60
2023-01-12T11:51:24.208Z,1.98
2023-01-12T11:53:51.659Z,8.48
2023-01-12T11:56:48.585Z,7.65
2023-01-12T11:59:33.779Z,4.00
2023-01-12T12:02:19.094Z,4.30
2023-01-12T12:04:54.572Z,4.95
2023-01-12T12:07:34.114Z,3.60
2023-01-12T12:10:30.619Z,3.55
2023-01-12T12:13:02.978Z,3.38
2023-01-12T12:18:28.299Z,4.43
2023-01-12T12:21:01.293Z,5.03
2023-01-12T12:23:43.884Z,3.60
2023-01-12T12:26:31.797Z,3.72
2023-01-12T12:29:29.617Z,2.33
2023-01-12T12:32:08.478Z,4.10
2023-01-12T12:35:14.406Z,1.83
2023-01-12T12:38:10.885Z,1.52
2023-01-12T12:41:13.412Z,2.42
2023-01-12T12:43:58.704Z,2.63
2023-01-12T12:46:43.930Z,2.75
2023-01-12T12:49:25.273Z,3.03
2023-01-12T12:51:54.524Z,6.40
2023-01-12T12:54:22.849Z,5.53
2023-01-12T12:56:50.150Z,6.57
2023-01-12T12:59:32.078Z,4.88
2023-01-12T13:02:01.085Z,5.78
2023-01-12T13:04:53.875Z,5.80
2023-01-12T13:07:22.137Z,5.30
2023-01-12T13:09:50.211Z,4.40
2023-01-12T13:12:32.102Z,4.38
2023-01-12T13:15:22.461Z,4.65
2023-01-12T13:17:52.790Z,4.82
2023-01-12T13:20:25.748Z,4.10
2023-01-12T13:22:53.261Z,3.55
2023-01-12T13:25:20.476Z,5.07
2023-01-12T13:28:00.557Z,6.07
2023-01-12T13:30:39.367Z,4.90
2023-01-12T13:33:15.015Z,2.97
2023-01-12T13:35:44.531Z,2.90
2023-01-12T13:38:32.034Z,5.57
2023-01-12T13:41:04.674Z,4.13
2023-01-12T13:43:38.436Z,3.08
2023-01-12T13:46:14.879Z,2.88
2023-01-12T13:48:49.584Z,5.63
2023-01-12T13:51:25.302Z,2.38
2023-01-12T13:54:07.285Z,5.32
2023-01-12T13:56:33.890Z,3.67
2023-01-12T13:59:06.344Z,2.72
2023-01-12T14:01:35.529Z,3.13
2023-01-12T14:04:16.849Z,2.63
2023-01-12T14:06:54.325Z,4.88
2023-01-12T14:09:52.216Z,4.03
2023-01-12T14:12:34.017Z,3.78
2023-01-12T14:15:41.688Z,4.50
2023-01-12T14:18:19.375Z,3.72
2023-01-12T14:20:51.109Z,4.85
2023-01-12T14:23:22.340Z,2.17
2023-01-12T14:26:07.798Z,3.35
2023-01-12T14:28:35.666Z,3.15
2023-01-12T14:31:04.618Z,4.43
2023-01-12T14:33:34.472Z,4.50
2023-01-12T14:36:08.215Z,3.78
2023-01-12T14:38:35.249Z,4.10
2023-01-12T14:41:27.617Z,2.13
2023-01-12T14:44:15.351Z,3.03
2023-01-12T14:46:49.298Z,2.25
2023-01-12T14:49:25.771Z,2.30
2023-01-12T14:51:54.068Z,4.35
2023-01-12T14:54:29.363Z,2.47
2023-01-12T14:57:17.355Z,2.40
2023-01-12T14:59:46.387Z,1.67
2023-01-12T15:02:12.955Z,2.78
2023-01-12T15:05:10.278Z,3.15
2023-01-12T15:07:41.964Z,3.80
2023-01-12T15:10:14.447Z,4.47
2023-01-12T15:12:49.685Z,2.35
2023-01-12T15:15:53.258Z,4.28
2023-01-12T15:18:38.626Z,3.95
2023-01-12T15:21:24.420Z,2.13
2023-01-12T15:24:09.672Z,2.35
2023-01-12T15:26:36.507Z,3.05
2023-01-12T15:29:03.228Z,4.18
2023-01-12T15:31:38.317Z,2.72
2023-01-12T15:34:05.913Z,1.92
2023-01-12T15:36:32.538Z,3.28
2023-01-12T15:38:59.678Z,3.78
2023-01-12T15:41:47.844Z,2.65
2023-01-12T15:44:17.239Z,4.00
2023-01-12T15:46:44.099Z,2.17
2023-01-12T15:49:13.342Z,3.42
2023-01-12T15:51:40.907Z,3.25
2023-01-12T15:54:11.831Z,2.83
2023-01-12T15:56:38.559Z,1.92
2023-01-12T15:59:05.229Z,5.65
2023-01-12T16:01:41.581Z,2.85
2023-01-12T16:04:41.416Z,1.73
2023-01-12T16:07:02.668Z,4.35
2023-01-12T16:09:30.320Z,4.95
2023-01-12T16:11:56.928Z,3.22
2023-01-12T16:14:23.559Z,3.03
2023-01-12T16:16:50.259Z,4.55
2023-01-12T16:19:21.604Z,4.15
2023-01-12T16:21:48.334Z,4.93
2023-01-12T16:24:14.982Z,2.88
2023-01-12T16:26:41.786Z,2.63
2023-01-12T16:29:09.060Z,5.00
2023-01-12T16:31:38.772Z,4.35
2023-01-12T16:34:06.048Z,6.35
2023-01-12T16:36:33.623Z,3.10
2023-01-12T16:39:02.886Z,3.63
2023-01-12T16:41:29.543Z,4.32
2023-01-12T16:43:58.617Z,6.10
2023-01-12T16:46:25.235Z,5.93
2023-01-12T16:48:55.401Z,3.38
2023-01-12T16:51:22.544Z,4.18
2023-01-12T16:53:49.379Z,5.72
2023-01-12T16:56:16.642Z,3.75
2023-01-12T16:58:48.136Z,1.73
2023-01-12T17:01:18.990Z,3.25
2023-01-12T17:03:45.858Z,6.13
2023-01-12T17:06:15.204Z,3.50
2023-01-12T17:08:42.228Z,4.10
2023-01-12T17:11:11.933Z,5.07
2023-01-12T17:13:39.552Z,3.22
2023-01-12T17:16:11.023Z,4.82
2023-01-12T17:18:39.236Z,6.40
2023-01-12T17:21:13.234Z,2.85
2023-01-12T17:23:41.118Z,1.80
2023-01-12T17:26:13.050Z,4.32
2023-01-12T17:28:41.002Z,6.95
2023-01-12T17:31:14.565Z,6.82
2023-01-12T17:33:41.506Z,6.25
2023-01-12T17:36:10.410Z,6.38
2023-01-12T17:38:37.877Z,5.50
2023-01-12T17:41:08.620Z,3.75
2023-01-12T17:43:37.247Z,4.93
2023-01-12T17:46:04.678Z,5.07
2023-01-12T17:48:31.437Z,3.50
2023-01-12T17:50:58.076Z,4.05
2023-01-12T17:53:24.715Z,5.32
2023-01-12T17:55:53.094Z,4.45
2023-01-12T17:58:19.891Z,5.55
2023-01-12T18:00:46.657Z,3.63
2023-01-12T18:03:13.256Z,11.07
2023-01-12T18:05:42.423Z,8.70
2023-01-12T18:08:09.177Z,5.57
2023-01-12T18:10:35.817Z,4.85
2023-01-12T18:13:02.391Z,6.85
2023-01-12T18:15:29.701Z,7.35
2023-01-12T18:17:56.399Z,5.53
2023-01-12T18:20:23.324Z,8.70
2023-01-12T18:22:50.608Z,5.43
2023-01-12T18:25:17.329Z,6.85
2023-01-12T18:27:45.597Z,6.05
2023-01-12T18:30:12.830Z,6.45
2023-01-12T18:32:39.712Z,6.13
2023-01-12T18:35:06.640Z,5.95
2023-01-12T18:37:33.301Z,5.55
2023-01-12T18:40:00.198Z,15.32
2023-01-12T18:42:45.483Z,6.60
2023-01-12T18:45:12.096Z,7.63
2023-01-12T18:47:57.255Z,4.40
2023-01-12T18:50:42.563Z,8.82
2023-01-12T18:53:26.839Z,2.88
2023-01-12T18:55:57.190Z,6.40
2023-01-12T18:58:28.853Z,7.10
2023-01-12T19:01:05.380Z,7.22
2023-01-12T19:03:32.148Z,8.27
2023-01-12T19:06:19.753Z,2.88
2023-01-12T19:09:04.744Z,5.32
2023-01-12T19:11:31.864Z,5.93
2023-01-12T19:14:17.018Z,6.22
2023-01-12T19:17:02.290Z,8.63
2023-01-12T19:19:32.647Z,6.20
2023-01-12T19:22:17.887Z,5.78
2023-01-12T19:25:03.797Z,4.22
2023-01-12T19:27:49.199Z,5.18
2023-01-12T19:30:16.228Z,10.10
2023-01-12T19:32:42.889Z,6.93
2023-01-12T19:35:11.755Z,5.45
2023-01-12T19:37:39.904Z,7.35
2023-01-12T19:40:20.329Z,4.40
2023-01-12T19:43:05.460Z,8.45
2023-01-12T19:45:32.416Z,6.10
2023-01-12T19:47:59.084Z,8.68
2023-01-12T19:50:25.880Z,7.82
2023-01-12T19:52:52.486Z,8.70
2023-01-12T19:55:19.235Z,10.50
2023-01-12T19:57:45.891Z,5.70
2023-01-12T20:00:15.227Z,5.80
2023-01-12T20:02:43.316Z,7.28
2023-01-12T20:05:13.170Z,6.07
2023-01-12T20:07:40.122Z,13.77
2023-01-12T20:10:06.903Z,5.72
2023-01-12T20:12:33.562Z,11.25
2023-01-12T20:15:00.240Z,4.65
2023-01-12T20:17:26.908Z,11.05
2023-01-12T20:19:53.580Z,8.18
2023-01-12T20:22:20.338Z,7.97
2023-01-12T20:24:48.136Z,8.30
2023-01-12T20:27:15.369Z,6.20
2023-01-12T20:29:42.094Z,11.60
2023-01-12T20:32:08.656Z,9.25
2023-01-12T20:34:35.419Z,7.63
2023-01-12T20:37:02.126Z,10.65
2023-01-12T20:39:29.517Z,8.38
2023-01-12T20:41:56.322Z,5.72
2023-01-12T20:44:23.054Z,8.38
2023-01-12T20:46:49.726Z,9.00
2023-01-12T20:49:16.449Z,5.85
2023-01-12T20:51:43.116Z,10.30
2023-01-12T20:54:10.089Z,9.75
2023-01-12T20:56:36.731Z,7.03
2023-01-12T20:59:03.370Z,13.05
2023-01-12T21:01:30.117Z,5.25
2023-01-12T21:03:57.080Z,6.90
2023-01-12T21:06:23.917Z,3.17
2023-01-12T21:08:50.744Z,12.40
2023-01-12T21:11:19.915Z,8.52
2023-01-12T21:13:46.782Z,8.40
2023-01-12T21:16:18.030Z,10.07
2023-01-12T21:18:45.283Z,14.27
2023-01-12T21:21:11.950Z,11.25
2023-01-12T21:23:39.010Z,12.90
2023-01-12T21:26:07.968Z,11.40
2023-01-12T21:28:37.615Z,16.48
2023-01-12T21:31:04.668Z,10.20
2023-01-12T21:33:31.607Z,12.27
2023-01-12T21:35:58.665Z,10.10
2023-01-12T21:38:26.410Z,6.88
2023-01-12T21:40:53.792Z,9.77
2023-01-12T21:43:20.527Z,16.75
2023-01-12T21:45:50.486Z,9.70
2023-01-12T21:48:19.061Z,7.47
2023-01-12T21:50:45.892Z,12.15
2023-01-12T21:53:15.189Z,13.30
2023-01-12T21:55:42.096Z,11.20
2023-01-12T21:58:09.077Z,12.57
2023-01-12T22:00:35.756Z,17.08
2023-01-12T22:03:02.392Z,14.57
2023-01-12T22:05:29.000Z,11.30
2023-01-12T22:07:57.629Z,13.82
2023-01-12T22:10:30.210Z,10.82
2023-01-12T22:12:59.586Z,9.38
2023-01-12T22:15:28.636Z,21.30
2023-01-12T22:17:55.885Z,9.90
2023-01-12T22:20:24.306Z,15.48
2023-01-12T22:22:51.129Z,14.10
2023-01-12T22:25:18.091Z,12.10
2023-01-12T22:27:45.454Z,12.85
2023-01-12T22:30:16.535Z,14.13
2023-01-12T22:32:43.571Z,19.10
2023-01-12T22:35:11.114Z,13.43
2023-01-12T22:37:39.055Z,5.80
2023-01-12T22:40:07.488Z,14.57
2023-01-12T22:42:52.685Z,13.93
2023-01-12T22:45:19.949Z,18.33
2023-01-12T22:47:51.544Z,15.10
2023-01-12T22:50:18.456Z,10.30
2023-01-12T22:52:45.225Z,13.90
2023-01-12T22:55:11.895Z,13.02
2023-01-12T22:57:38.458Z,9.70
2023-01-12T23:00:05.410Z,13.68
2023-01-12T23:02:50.737Z,20.40
2023-01-12T23:05:17.886Z,25.27
2023-01-12T23:07:44.561Z,15.02
2023-01-12T23:10:11.262Z,15.35
2023-01-12T23:12:37.824Z,24.70
2023-01-12T23:15:04.880Z,14.65
2023-01-12T23:17:32.976Z,12.32
2023-01-12T23:19:59.577Z,12.98
2023-01-12T23:22:26.167Z,20.85
2023-01-12T23:24:52.750Z,10.90
2023-01-12T23:27:19.445Z,19.48
2023-01-12T23:29:47.128Z,12.00
2023-01-12T23:32:13.747Z,23.23
2023-01-12T23:34:40.384Z,7.05
2023-01-12T23:37:07.315Z,23.13
2023-01-12T23:39:33.956Z,13.00
2023-01-12T23:42:00.588Z,12.52
2023-01-12T23:44:27.165Z,15.15
2023-01-12T23:46:55.264Z,15.07
2023-01-12T23:49:21.895Z,22.77
2023-01-12T23:51:48.688Z,15.68
2023-01-12T23:54:18.010Z,20.90
2023-01-12T23:56:44.614Z,11.32
2023-01-12T23:59:11.178Z,15.05
